Dyess, AR (72330)

1:14 PM CDT on August 30, 2015 (GMT -0500)
Quito, TN | | Change Station
CLOSE
Current Station
Personal Weather Station
Location: Millington, TN
Elevation: 344 ft
Nearby Weather Stations

Elev 344 ft 35.40 °N, 89.93 °W | Updated 4 seconds ago

Mostly Cloudy
Mostly Cloudy
88.3 °F
Feels Like 96 °F
N
3.7
Wind Variable Wind from East

Today
High -- | Low -- °F
--% Chance of Precip.
Yesterday
High -- | Low -- °F
Precip. -- in
6:31 AM 7:31 PM
Full, 99% visible
Pressure 30.06 in
Visibility 10.0 miles
Clouds Few 3000 ft
Mostly Cloudy 15000 ft
Mostly Cloudy 25000 ft
Heat Index 96 °F
Dew Point 73 °F
Humidity 60%
Rainfall 0.00 in
Snow Depth Not available.
UV 6 out of 12
Pollen 8.70 out of 12
Air Quality Not available.
Flu Activity Not available.
METAR KNQA 301750Z 17005KT 10SM FEW030 BKN150 BKN250 29/24 A3006
Pressure 30.06 in
Visibility 10.0 miles
Clouds Few 3000 ft
Mostly Cloudy 15000 ft
Mostly Cloudy 25000 ft
Heat Index 96 °F
Dew Point 73 °F
Humidity 60%
Rainfall 0.00 in
Snow Depth Not available.
UV 6 out of 12
Pollen 8.70 out of 12
Air Quality Not available.
Flu Activity Not available.
METAR KNQA 301750Z 17005KT 10SM FEW030 BKN150 BKN250 29/24 A3006

10-Day Weather Forecast

×

Almanac

Astronomy

Aug. 30, 2015 Rise Set
Actual Time
Civil Twilight
Nautical Twilight
Astronomical Twilight
Moon
Length of Visible Light
Length of Day
Tomorrow will be .
, % of the Moon is Illuminated

Today's Extremes

State Highs State Lows

Community

WunderPhotos

Upload Photos

1,851,027 photos uploaded!

WunderBlogs® & News

Nearby

Air Quality

  Air Quality AQ Index Pollutant
Not available.

Snow Depth

Station Depth Elevation

Earthquake Activity

City Distance Mag. Time & Date
Minimum magnitude displayed is 2.5.

Coastal Water Temperatures

Place Temperature

Stations

Nearby Weather Stations

Station Location Temp. Windchill Dew Point Humidity Wind Precip. Elev Updated Type